sensor_id;sensor_type;location;lat;lon;timestamp;P1;durP1;ratioP1;P2;durP2;ratioP2
6344;SDS011;3205;42.666;23.264;2022-10-31T00:01:42;7.13;;;4.30;;
6344;SDS011;3205;42.666;23.264;2022-10-31T00:04:10;11.57;;;4.80;;
6344;SDS011;3205;42.666;23.264;2022-10-31T00:06:37;12.10;;;4.80;;
6344;SDS011;3205;42.666;23.264;2022-10-31T00:09:05;11.70;;;5.10;;
6344;SDS011;3205;42.666;23.264;2022-10-31T00:11:32;7.27;;;4.23;;
6344;SDS011;3205;42.666;23.264;2022-10-31T00:13:59;8.83;;;4.33;;
6344;SDS011;3205;42.666;23.264;2022-10-31T00:16:26;8.57;;;4.60;;
6344;SDS011;3205;42.666;23.264;2022-10-31T00:18:54;6.40;;;4.10;;
6344;SDS011;3205;42.666;23.264;2022-10-31T00:21:22;5.67;;;4.17;;
6344;SDS011;3205;42.666;23.264;2022-10-31T00:23:50;9.53;;;4.43;;
6344;SDS011;3205;42.666;23.264;2022-10-31T00:26:19;6.00;;;3.60;;
6344;SDS011;3205;42.666;23.264;2022-10-31T00:28:46;8.63;;;4.00;;
6344;SDS011;3205;42.666;23.264;2022-10-31T00:31:13;11.03;;;3.83;;
6344;SDS011;3205;42.666;23.264;2022-10-31T00:33:40;7.10;;;3.70;;
6344;SDS011;3205;42.666;23.264;2022-10-31T00:36:10;8.87;;;3.63;;
6344;SDS011;3205;42.666;23.264;2022-10-31T00:38:38;8.57;;;4.07;;
6344;SDS011;3205;42.666;23.264;2022-10-31T00:41:05;8.13;;;3.63;;
6344;SDS011;3205;42.666;23.264;2022-10-31T00:43:33;5.57;;;3.50;;
6344;SDS011;3205;42.666;23.264;2022-10-31T00:46:00;7.13;;;3.37;;
6344;SDS011;3205;42.666;23.264;2022-10-31T00:48:27;9.07;;;3.70;;
6344;SDS011;3205;42.666;23.264;2022-10-31T00:50:54;7.73;;;3.63;;
6344;SDS011;3205;42.666;23.264;2022-10-31T00:53:21;8.57;;;3.67;;
6344;SDS011;3205;42.666;23.264;2022-10-31T00:55:48;5.50;;;3.80;;
6344;SDS011;3205;42.666;23.264;2022-10-31T00:58:15;8.50;;;3.33;;
6344;SDS011;3205;42.666;23.264;2022-10-31T01:00:43;6.47;;;3.63;;
6344;SDS011;3205;42.666;23.264;2022-10-31T01:03:10;6.87;;;3.50;;
6344;SDS011;3205;42.666;23.264;2022-10-31T01:05:37;7.53;;;3.20;;
6344;SDS011;3205;42.666;23.264;2022-10-31T01:08:04;6.10;;;3.50;;
6344;SDS011;3205;42.666;23.264;2022-10-31T01:10:30;6.97;;;3.77;;
6344;SDS011;3205;42.666;23.264;2022-10-31T01:12:57;7.73;;;3.63;;
6344;SDS011;3205;42.666;23.264;2022-10-31T01:15:24;7.43;;;4.17;;
6344;SDS011;3205;42.666;23.264;2022-10-31T01:17:52;9.07;;;3.80;;
6344;SDS011;3205;42.666;23.264;2022-10-31T01:20:19;7.93;;;3.50;;
6344;SDS011;3205;42.666;23.264;2022-10-31T01:22:46;8.07;;;3.47;;
6344;SDS011;3205;42.666;23.264;2022-10-31T01:25:13;6.60;;;3.63;;
6344;SDS011;3205;42.666;23.264;2022-10-31T01:27:39;20.70;;;3.70;;
6344;SDS011;3205;42.666;23.264;2022-10-31T01:30:07;7.17;;;3.73;;
6344;SDS011;3205;42.666;23.264;2022-10-31T01:32:34;13.23;;;3.87;;
6344;SDS011;3205;42.666;23.264;2022-10-31T01:35:02;6.50;;;3.30;;
6344;SDS011;3205;42.666;23.264;2022-10-31T01:37:30;14.30;;;3.80;;
6344;SDS011;3205;42.666;23.264;2022-10-31T01:39:57;7.50;;;3.90;;
6344;SDS011;3205;42.666;23.264;2022-10-31T01:42:24;7.13;;;3.88;;
6344;SDS011;3205;42.666;23.264;2022-10-31T01:44:52;9.27;;;3.90;;
6344;SDS011;3205;42.666;23.264;2022-10-31T01:47:26;8.73;;;3.78;;
6344;SDS011;3205;42.666;23.264;2022-10-31T01:49:59;7.60;;;4.57;;
6344;SDS011;3205;42.666;23.264;2022-10-31T01:52:31;11.80;;;4.28;;
6344;SDS011;3205;42.666;23.264;2022-10-31T01:55:01;9.10;;;4.65;;
6344;SDS011;3205;42.666;23.264;2022-10-31T01:57:31;9.43;;;4.00;;
6344;SDS011;3205;42.666;23.264;2022-10-31T02:00:03;7.68;;;4.28;;
6344;SDS011;3205;42.666;23.264;2022-10-31T02:02:33;11.02;;;4.53;;
6344;SDS011;3205;42.666;23.264;2022-10-31T02:05:01;8.83;;;4.83;;
6344;SDS011;3205;42.666;23.264;2022-10-31T02:07:32;8.37;;;4.43;;
6344;SDS011;3205;42.666;23.264;2022-10-31T02:10:04;12.95;;;4.55;;
6344;SDS011;3205;42.666;23.264;2022-10-31T02:12:32;9.15;;;4.82;;
6344;SDS011;3205;42.666;23.264;2022-10-31T02:15:01;12.85;;;4.78;;
6344;SDS011;3205;42.666;23.264;2022-10-31T02:17:28;11.15;;;5.43;;
6344;SDS011;3205;42.666;23.264;2022-10-31T02:20:00;13.55;;;4.80;;
6344;SDS011;3205;42.666;23.264;2022-10-31T02:22:38;9.98;;;5.22;;
6344;SDS011;3205;42.666;23.264;2022-10-31T02:25:20;9.18;;;5.40;;
6344;SDS011;3205;42.666;23.264;2022-10-31T02:28:11;11.88;;;5.45;;
6344;SDS011;3205;42.666;23.264;2022-10-31T02:31:01;10.00;;;5.28;;
6344;SDS011;3205;42.666;23.264;2022-10-31T02:33:41;12.13;;;5.57;;
6344;SDS011;3205;42.666;23.264;2022-10-31T02:36:13;10.75;;;5.00;;
6344;SDS011;3205;42.666;23.264;2022-10-31T02:38:49;9.50;;;4.93;;
6344;SDS011;3205;42.666;23.264;2022-10-31T02:41:26;10.93;;;4.88;;
6344;SDS011;3205;42.666;23.264;2022-10-31T02:44:01;10.75;;;5.10;;
6344;SDS011;3205;42.666;23.264;2022-10-31T02:46:37;10.50;;;5.32;;
6344;SDS011;3205;42.666;23.264;2022-10-31T02:49:11;13.13;;;5.60;;
6344;SDS011;3205;42.666;23.264;2022-10-31T02:51:45;14.98;;;5.47;;
6344;SDS011;3205;42.666;23.264;2022-10-31T02:54:19;12.40;;;5.97;;
6344;SDS011;3205;42.666;23.264;2022-10-31T02:56:50;10.35;;;4.93;;
6344;SDS011;3205;42.666;23.264;2022-10-31T02:59:20;12.07;;;5.10;;
6344;SDS011;3205;42.666;23.264;2022-10-31T03:02:00;10.33;;;5.83;;
6344;SDS011;3205;42.666;23.264;2022-10-31T03:04:46;10.98;;;5.38;;
6344;SDS011;3205;42.666;23.264;2022-10-31T03:07:24;13.90;;;5.43;;
6344;SDS011;3205;42.666;23.264;2022-10-31T03:10:00;9.98;;;5.22;;
6344;SDS011;3205;42.666;23.264;2022-10-31T03:12:38;16.27;;;5.65;;
6344;SDS011;3205;42.666;23.264;2022-10-31T03:15:11;10.75;;;5.15;;
6344;SDS011;3205;42.666;23.264;2022-10-31T03:17:45;12.57;;;5.00;;
6344;SDS011;3205;42.666;23.264;2022-10-31T03:20:20;15.73;;;5.85;;
6344;SDS011;3205;42.666;23.264;2022-10-31T03:22:50;29.70;;;7.28;;
6344;SDS011;3205;42.666;23.264;2022-10-31T03:25:19;28.85;;;8.40;;
6344;SDS011;3205;42.666;23.264;2022-10-31T03:27:45;15.75;;;6.32;;
6344;SDS011;3205;42.666;23.264;2022-10-31T03:30:13;28.85;;;6.30;;
6344;SDS011;3205;42.666;23.264;2022-10-31T03:32:44;28.25;;;9.30;;
6344;SDS011;3205;42.666;23.264;2022-10-31T03:35:15;30.07;;;8.37;;
6344;SDS011;3205;42.666;23.264;2022-10-31T03:37:46;16.57;;;6.33;;
6344;SDS011;3205;42.666;23.264;2022-10-31T03:40:15;13.38;;;6.38;;
6344;SDS011;3205;42.666;23.264;2022-10-31T03:42:46;13.40;;;6.07;;
6344;SDS011;3205;42.666;23.264;2022-10-31T03:45:20;13.33;;;6.83;;
6344;SDS011;3205;42.666;23.264;2022-10-31T03:47:51;15.77;;;6.63;;
6344;SDS011;3205;42.666;23.264;2022-10-31T03:50:20;18.20;;;7.88;;
6344;SDS011;3205;42.666;23.264;2022-10-31T03:52:49;19.47;;;7.67;;
6344;SDS011;3205;42.666;23.264;2022-10-31T03:55:23;25.23;;;7.70;;
6344;SDS011;3205;42.666;23.264;2022-10-31T03:57:56;21.27;;;7.15;;
6344;SDS011;3205;42.666;23.264;2022-10-31T04:00:26;19.30;;;7.15;;
6344;SDS011;3205;42.666;23.264;2022-10-31T04:02:55;17.03;;;7.60;;
6344;SDS011;3205;42.666;23.264;2022-10-31T04:05:26;20.70;;;6.87;;
6344;SDS011;3205;42.666;23.264;2022-10-31T04:07:55;21.38;;;7.65;;
6344;SDS011;3205;42.666;23.264;2022-10-31T04:10:24;20.23;;;7.32;;
6344;SDS011;3205;42.666;23.264;2022-10-31T04:12:54;15.27;;;6.30;;
6344;SDS011;3205;42.666;23.264;2022-10-31T04:15:24;15.80;;;6.03;;
6344;SDS011;3205;42.666;23.264;2022-10-31T04:17:55;14.93;;;6.70;;
6344;SDS011;3205;42.666;23.264;2022-10-31T04:20:31;24.67;;;7.13;;
6344;SDS011;3205;42.666;23.264;2022-10-31T04:22:59;15.60;;;6.50;;
6344;SDS011;3205;42.666;23.264;2022-10-31T04:25:26;19.83;;;6.07;;
6344;SDS011;3205;42.666;23.264;2022-10-31T04:27:52;16.97;;;6.67;;
6344;SDS011;3205;42.666;23.264;2022-10-31T04:30:19;13.03;;;5.53;;
6344;SDS011;3205;42.666;23.264;2022-10-31T04:32:46;11.87;;;5.60;;
6344;SDS011;3205;42.666;23.264;2022-10-31T04:35:14;13.13;;;5.63;;
6344;SDS011;3205;42.666;23.264;2022-10-31T04:37:42;19.33;;;5.93;;
6344;SDS011;3205;42.666;23.264;2022-10-31T04:40:09;16.67;;;5.97;;
6344;SDS011;3205;42.666;23.264;2022-10-31T04:42:36;17.70;;;6.67;;
6344;SDS011;3205;42.666;23.264;2022-10-31T04:45:04;17.58;;;6.35;;
6344;SDS011;3205;42.666;23.264;2022-10-31T04:47:31;16.93;;;6.37;;
6344;SDS011;3205;42.666;23.264;2022-10-31T04:49:58;15.80;;;5.88;;
6344;SDS011;3205;42.666;23.264;2022-10-31T04:52:26;23.15;;;6.82;;
6344;SDS011;3205;42.666;23.264;2022-10-31T04:54:53;13.93;;;5.93;;
6344;SDS011;3205;42.666;23.264;2022-10-31T04:57:20;18.83;;;7.10;;
6344;SDS011;3205;42.666;23.264;2022-10-31T04:59:47;32.50;;;8.00;;
6344;SDS011;3205;42.666;23.264;2022-10-31T05:02:14;16.33;;;6.50;;
6344;SDS011;3205;42.666;23.264;2022-10-31T05:04:41;14.48;;;5.53;;
6344;SDS011;3205;42.666;23.264;2022-10-31T05:07:07;18.85;;;5.88;;
6344;SDS011;3205;42.666;23.264;2022-10-31T05:09:35;22.57;;;5.67;;
6344;SDS011;3205;42.666;23.264;2022-10-31T05:12:02;27.00;;;7.33;;
6344;SDS011;3205;42.666;23.264;2022-10-31T05:14:29;32.27;;;7.93;;
6344;SDS011;3205;42.666;23.264;2022-10-31T05:16:56;43.70;;;9.00;;
6344;SDS011;3205;42.666;23.264;2022-10-31T05:19:23;47.37;;;10.80;;
6344;SDS011;3205;42.666;23.264;2022-10-31T05:21:50;41.47;;;9.83;;
6344;SDS011;3205;42.666;23.264;2022-10-31T05:24:16;34.78;;;8.98;;
6344;SDS011;3205;42.666;23.264;2022-10-31T05:26:48;43.87;;;9.17;;
6344;SDS011;3205;42.666;23.264;2022-10-31T05:29:15;56.30;;;9.50;;
6344;SDS011;3205;42.666;23.264;2022-10-31T05:31:42;31.83;;;9.37;;
6344;SDS011;3205;42.666;23.264;2022-10-31T05:34:08;35.97;;;9.87;;
6344;SDS011;3205;42.666;23.264;2022-10-31T05:36:35;40.13;;;9.73;;
6344;SDS011;3205;42.666;23.264;2022-10-31T05:39:02;22.02;;;7.97;;
6344;SDS011;3205;42.666;23.264;2022-10-31T05:41:29;30.60;;;9.27;;
6344;SDS011;3205;42.666;23.264;2022-10-31T05:43:58;57.53;;;13.02;;
6344;SDS011;3205;42.666;23.264;2022-10-31T05:46:25;36.50;;;11.07;;
6344;SDS011;3205;42.666;23.264;2022-10-31T05:48:51;27.00;;;8.70;;
6344;SDS011;3205;42.666;23.264;2022-10-31T05:51:18;12.70;;;7.83;;
6344;SDS011;3205;42.666;23.264;2022-10-31T05:53:45;19.37;;;7.50;;
6344;SDS011;3205;42.666;23.264;2022-10-31T05:56:13;18.83;;;8.83;;
6344;SDS011;3205;42.666;23.264;2022-10-31T05:58:40;30.88;;;10.07;;
6344;SDS011;3205;42.666;23.264;2022-10-31T06:01:09;54.35;;;11.80;;
6344;SDS011;3205;42.666;23.264;2022-10-31T06:03:36;41.40;;;11.63;;
6344;SDS011;3205;42.666;23.264;2022-10-31T06:06:03;28.95;;;9.55;;
6344;SDS011;3205;42.666;23.264;2022-10-31T06:08:30;29.63;;;15.90;;
6344;SDS011;3205;42.666;23.264;2022-10-31T06:10:56;19.08;;;11.30;;
6344;SDS011;3205;42.666;23.264;2022-10-31T06:13:23;18.45;;;11.60;;
6344;SDS011;3205;42.666;23.264;2022-10-31T06:15:50;24.10;;;12.23;;
6344;SDS011;3205;42.666;23.264;2022-10-31T06:18:19;22.75;;;11.32;;
6344;SDS011;3205;42.666;23.264;2022-10-31T06:20:45;29.20;;;12.85;;
6344;SDS011;3205;42.666;23.264;2022-10-31T06:23:12;23.05;;;13.13;;
6344;SDS011;3205;42.666;23.264;2022-10-31T06:25:39;23.67;;;12.93;;
6344;SDS011;3205;42.666;23.264;2022-10-31T06:28:06;24.77;;;13.10;;
6344;SDS011;3205;42.666;23.264;2022-10-31T06:30:32;22.23;;;13.27;;
6344;SDS011;3205;42.666;23.264;2022-10-31T06:33:02;35.75;;;13.60;;
6344;SDS011;3205;42.666;23.264;2022-10-31T06:35:31;32.08;;;13.45;;
6344;SDS011;3205;42.666;23.264;2022-10-31T06:37:58;23.73;;;12.02;;
6344;SDS011;3205;42.666;23.264;2022-10-31T06:40:25;24.30;;;12.20;;
6344;SDS011;3205;42.666;23.264;2022-10-31T06:42:58;20.20;;;11.40;;
6344;SDS011;3205;42.666;23.264;2022-10-31T06:45:26;22.60;;;12.15;;
6344;SDS011;3205;42.666;23.264;2022-10-31T06:47:53;21.27;;;10.63;;
6344;SDS011;3205;42.666;23.264;2022-10-31T06:50:21;18.75;;;11.15;;
6344;SDS011;3205;42.666;23.264;2022-10-31T06:52:53;18.20;;;11.10;;
6344;SDS011;3205;42.666;23.264;2022-10-31T06:55:22;23.95;;;11.30;;
6344;SDS011;3205;42.666;23.264;2022-10-31T06:57:49;19.70;;;11.75;;
6344;SDS011;3205;42.666;23.264;2022-10-31T07:00:17;26.35;;;11.27;;
6344;SDS011;3205;42.666;23.264;2022-10-31T07:02:43;29.08;;;11.90;;
6344;SDS011;3205;42.666;23.264;2022-10-31T07:05:18;26.90;;;10.45;;
6344;SDS011;3205;42.666;23.264;2022-10-31T07:07:45;16.42;;;11.25;;
6344;SDS011;3205;42.666;23.264;2022-10-31T07:10:13;17.85;;;11.48;;
6344;SDS011;3205;42.666;23.264;2022-10-31T07:12:40;18.33;;;10.60;;
6344;SDS011;3205;42.666;23.264;2022-10-31T07:15:07;21.25;;;12.68;;
6344;SDS011;3205;42.666;23.264;2022-10-31T07:17:34;22.52;;;11.63;;
6344;SDS011;3205;42.666;23.264;2022-10-31T07:20:01;23.65;;;13.07;;
6344;SDS011;3205;42.666;23.264;2022-10-31T07:22:32;27.52;;;12.63;;
6344;SDS011;3205;42.666;23.264;2022-10-31T07:24:59;21.75;;;12.90;;
6344;SDS011;3205;42.666;23.264;2022-10-31T07:27:27;21.92;;;12.70;;
6344;SDS011;3205;42.666;23.264;2022-10-31T07:29:54;16.58;;;12.18;;
6344;SDS011;3205;42.666;23.264;2022-10-31T07:32:21;19.42;;;12.68;;
6344;SDS011;3205;42.666;23.264;2022-10-31T07:34:48;31.15;;;12.90;;
6344;SDS011;3205;42.666;23.264;2022-10-31T07:37:14;22.05;;;12.80;;
6344;SDS011;3205;42.666;23.264;2022-10-31T07:39:41;18.30;;;13.65;;
6344;SDS011;3205;42.666;23.264;2022-10-31T07:42:08;24.05;;;13.23;;
6344;SDS011;3205;42.666;23.264;2022-10-31T07:44:36;24.92;;;12.55;;
6344;SDS011;3205;42.666;23.264;2022-10-31T07:47:03;19.65;;;12.60;;
6344;SDS011;3205;42.666;23.264;2022-10-31T07:49:30;18.52;;;12.88;;
6344;SDS011;3205;42.666;23.264;2022-10-31T07:51:57;20.58;;;12.52;;
6344;SDS011;3205;42.666;23.264;2022-10-31T07:54:23;22.00;;;12.70;;
6344;SDS011;3205;42.666;23.264;2022-10-31T07:56:50;21.95;;;12.68;;
6344;SDS011;3205;42.666;23.264;2022-10-31T07:59:17;21.90;;;11.95;;
6344;SDS011;3205;42.666;23.264;2022-10-31T08:01:45;13.05;;;9.95;;
6344;SDS011;3205;42.666;23.264;2022-10-31T08:04:12;20.42;;;11.18;;
6344;SDS011;3205;42.666;23.264;2022-10-31T08:06:39;17.73;;;10.18;;
6344;SDS011;3205;42.666;23.264;2022-10-31T08:09:05;20.27;;;9.80;;
6344;SDS011;3205;42.666;23.264;2022-10-31T08:11:32;20.95;;;10.40;;
6344;SDS011;3205;42.666;23.264;2022-10-31T08:13:59;25.80;;;11.90;;
6344;SDS011;3205;42.666;23.264;2022-10-31T08:16:26;18.60;;;9.80;;
6344;SDS011;3205;42.666;23.264;2022-10-31T08:18:54;23.05;;;9.70;;
6344;SDS011;3205;42.666;23.264;2022-10-31T08:21:21;16.50;;;9.05;;
6344;SDS011;3205;42.666;23.264;2022-10-31T08:23:48;18.90;;;9.98;;
6344;SDS011;3205;42.666;23.264;2022-10-31T08:26:15;22.85;;;10.38;;
6344;SDS011;3205;42.666;23.264;2022-10-31T08:28:42;16.65;;;9.60;;
6344;SDS011;3205;42.666;23.264;2022-10-31T08:31:09;14.52;;;9.13;;
6344;SDS011;3205;42.666;23.264;2022-10-31T08:33:36;17.25;;;8.55;;
6344;SDS011;3205;42.666;23.264;2022-10-31T08:36:04;16.75;;;8.98;;
6344;SDS011;3205;42.666;23.264;2022-10-31T08:38:31;14.80;;;9.75;;
6344;SDS011;3205;42.666;23.264;2022-10-31T08:40:58;15.57;;;9.00;;
6344;SDS011;3205;42.666;23.264;2022-10-31T08:43:25;11.00;;;8.40;;
6344;SDS011;3205;42.666;23.264;2022-10-31T08:45:52;11.18;;;8.38;;
6344;SDS011;3205;42.666;23.264;2022-10-31T08:48:20;12.10;;;8.65;;
6344;SDS011;3205;42.666;23.264;2022-10-31T08:50:47;14.05;;;8.48;;
6344;SDS011;3205;42.666;23.264;2022-10-31T08:53:16;19.27;;;8.98;;
6344;SDS011;3205;42.666;23.264;2022-10-31T08:55:44;12.68;;;9.02;;
6344;SDS011;3205;42.666;23.264;2022-10-31T08:58:12;15.45;;;8.57;;
6344;SDS011;3205;42.666;23.264;2022-10-31T09:00:41;15.80;;;8.90;;
6344;SDS011;3205;42.666;23.264;2022-10-31T09:03:09;12.07;;;8.75;;
6344;SDS011;3205;42.666;23.264;2022-10-31T09:05:37;19.13;;;8.38;;
6344;SDS011;3205;42.666;23.264;2022-10-31T09:08:05;14.10;;;7.53;;
6344;SDS011;3205;42.666;23.264;2022-10-31T09:10:34;12.30;;;8.10;;
6344;SDS011;3205;42.666;23.264;2022-10-31T09:13:05;19.38;;;8.57;;
6344;SDS011;3205;42.666;23.264;2022-10-31T09:15:33;15.35;;;8.35;;
6344;SDS011;3205;42.666;23.264;2022-10-31T09:18:01;10.27;;;8.43;;
6344;SDS011;3205;42.666;23.264;2022-10-31T09:20:28;15.02;;;8.77;;
6344;SDS011;3205;42.666;23.264;2022-10-31T09:22:57;16.05;;;8.80;;
6344;SDS011;3205;42.666;23.264;2022-10-31T09:25:25;12.27;;;8.68;;
6344;SDS011;3205;42.666;23.264;2022-10-31T09:27:56;15.82;;;8.75;;
6344;SDS011;3205;42.666;23.264;2022-10-31T09:30:23;20.42;;;9.05;;
6344;SDS011;3205;42.666;23.264;2022-10-31T09:32:54;12.05;;;8.43;;
6344;SDS011;3205;42.666;23.264;2022-10-31T09:35:21;12.20;;;7.93;;
6344;SDS011;3205;42.666;23.264;2022-10-31T09:37:53;15.60;;;7.90;;
6344;SDS011;3205;42.666;23.264;2022-10-31T09:40:21;12.10;;;7.90;;
6344;SDS011;3205;42.666;23.264;2022-10-31T09:42:51;13.15;;;7.47;;
6344;SDS011;3205;42.666;23.264;2022-10-31T09:45:31;12.32;;;7.35;;
6344;SDS011;3205;42.666;23.264;2022-10-31T09:48:10;10.30;;;7.30;;
6344;SDS011;3205;42.666;23.264;2022-10-31T09:50:44;12.52;;;7.03;;
6344;SDS011;3205;42.666;23.264;2022-10-31T09:53:17;9.38;;;6.80;;
6344;SDS011;3205;42.666;23.264;2022-10-31T09:55:52;13.32;;;6.97;;
6344;SDS011;3205;42.666;23.264;2022-10-31T09:58:23;11.88;;;7.50;;
6344;SDS011;3205;42.666;23.264;2022-10-31T10:00:53;12.02;;;7.13;;
6344;SDS011;3205;42.666;23.264;2022-10-31T10:03:26;14.57;;;7.05;;
6344;SDS011;3205;42.666;23.264;2022-10-31T10:06:01;11.07;;;7.32;;
6344;SDS011;3205;42.666;23.264;2022-10-31T10:08:35;13.50;;;7.00;;
6344;SDS011;3205;42.666;23.264;2022-10-31T10:11:06;11.57;;;7.07;;
6344;SDS011;3205;42.666;23.264;2022-10-31T10:13:50;12.20;;;7.03;;
6344;SDS011;3205;42.666;23.264;2022-10-31T10:16:27;14.23;;;6.40;;
6344;SDS011;3205;42.666;23.264;2022-10-31T10:19:11;9.45;;;5.07;;
6344;SDS011;3205;42.666;23.264;2022-10-31T10:21:48;12.18;;;6.45;;
6344;SDS011;3205;42.666;23.264;2022-10-31T10:24:25;10.45;;;4.43;;
6344;SDS011;3205;42.666;23.264;2022-10-31T10:27:04;6.60;;;4.53;;
6344;SDS011;3205;42.666;23.264;2022-10-31T10:29:40;8.88;;;4.68;;
6344;SDS011;3205;42.666;23.264;2022-10-31T10:32:14;12.07;;;3.97;;
6344;SDS011;3205;42.666;23.264;2022-10-31T10:34:47;9.30;;;4.07;;
6344;SDS011;3205;42.666;23.264;2022-10-31T10:37:20;11.43;;;5.20;;
6344;SDS011;3205;42.666;23.264;2022-10-31T10:39:54;15.90;;;5.05;;
6344;SDS011;3205;42.666;23.264;2022-10-31T10:42:26;8.45;;;4.65;;
6344;SDS011;3205;42.666;23.264;2022-10-31T10:45:16;12.88;;;4.93;;
6344;SDS011;3205;42.666;23.264;2022-10-31T10:48:06;14.32;;;5.40;;
6344;SDS011;3205;42.666;23.264;2022-10-31T10:50:39;11.90;;;5.45;;
6344;SDS011;3205;42.666;23.264;2022-10-31T10:53:14;11.77;;;5.05;;
6344;SDS011;3205;42.666;23.264;2022-10-31T10:55:57;6.70;;;4.20;;
6344;SDS011;3205;42.666;23.264;2022-10-31T10:58:30;10.25;;;3.90;;
6344;SDS011;3205;42.666;23.264;2022-10-31T11:00:58;13.10;;;3.75;;
6344;SDS011;3205;42.666;23.264;2022-10-31T11:03:25;7.20;;;3.10;;
6344;SDS011;3205;42.666;23.264;2022-10-31T11:05:53;14.95;;;3.47;;
6344;SDS011;3205;42.666;23.264;2022-10-31T11:08:25;20.80;;;3.90;;
6344;SDS011;3205;42.666;23.264;2022-10-31T11:10:58;14.65;;;3.80;;
6344;SDS011;3205;42.666;23.264;2022-10-31T11:13:27;9.95;;;3.33;;
6344;SDS011;3205;42.666;23.264;2022-10-31T11:16:00;11.50;;;3.28;;
6344;SDS011;3205;42.666;23.264;2022-10-31T11:18:30;6.30;;;2.80;;
6344;SDS011;3205;42.666;23.264;2022-10-31T11:20:59;11.32;;;3.28;;
6344;SDS011;3205;42.666;23.264;2022-10-31T11:23:29;6.88;;;3.13;;
6344;SDS011;3205;42.666;23.264;2022-10-31T11:25:58;7.63;;;3.17;;
6344;SDS011;3205;42.666;23.264;2022-10-31T11:28:27;13.20;;;4.05;;
6344;SDS011;3205;42.666;23.264;2022-10-31T11:30:55;9.27;;;4.10;;
6344;SDS011;3205;42.666;23.264;2022-10-31T11:33:28;9.38;;;3.83;;
6344;SDS011;3205;42.666;23.264;2022-10-31T11:35:57;8.48;;;3.33;;
6344;SDS011;3205;42.666;23.264;2022-10-31T11:38:28;8.63;;;3.97;;
6344;SDS011;3205;42.666;23.264;2022-10-31T11:41:03;9.07;;;3.75;;
6344;SDS011;3205;42.666;23.264;2022-10-31T11:43:37;8.77;;;3.90;;
6344;SDS011;3205;42.666;23.264;2022-10-31T11:46:11;6.20;;;3.28;;
6344;SDS011;3205;42.666;23.264;2022-10-31T11:48:47;7.90;;;3.42;;
6344;SDS011;3205;42.666;23.264;2022-10-31T11:51:19;4.65;;;3.00;;
6344;SDS011;3205;42.666;23.264;2022-10-31T11:53:50;6.50;;;3.38;;
6344;SDS011;3205;42.666;23.264;2022-10-31T11:56:18;10.25;;;3.80;;
6344;SDS011;3205;42.666;23.264;2022-10-31T11:58:54;7.63;;;3.72;;
6344;SDS011;3205;42.666;23.264;2022-10-31T12:01:24;13.07;;;4.00;;
6344;SDS011;3205;42.666;23.264;2022-10-31T12:03:59;10.60;;;3.30;;
6344;SDS011;3205;42.666;23.264;2022-10-31T12:06:33;12.77;;;4.10;;
6344;SDS011;3205;42.666;23.264;2022-10-31T12:09:01;10.25;;;3.72;;
6344;SDS011;3205;42.666;23.264;2022-10-31T12:11:37;11.35;;;3.80;;
6344;SDS011;3205;42.666;23.264;2022-10-31T12:14:16;7.88;;;3.28;;
6344;SDS011;3205;42.666;23.264;2022-10-31T12:16:57;8.10;;;3.58;;
6344;SDS011;3205;42.666;23.264;2022-10-31T12:19:35;14.25;;;4.15;;
6344;SDS011;3205;42.666;23.264;2022-10-31T12:22:12;17.63;;;3.85;;
6344;SDS011;3205;42.666;23.264;2022-10-31T12:24:56;10.95;;;4.07;;
6344;SDS011;3205;42.666;23.264;2022-10-31T12:27:42;11.90;;;4.57;;
6344;SDS011;3205;42.666;23.264;2022-10-31T12:30:20;9.20;;;3.97;;
6344;SDS011;3205;42.666;23.264;2022-10-31T12:35:57;10.20;;;4.13;;
6344;SDS011;3205;42.666;23.264;2022-10-31T12:38:38;8.68;;;3.75;;
6344;SDS011;3205;42.666;23.264;2022-10-31T12:41:19;9.80;;;4.25;;
6344;SDS011;3205;42.666;23.264;2022-10-31T12:43:55;11.65;;;5.30;;
6344;SDS011;3205;42.666;23.264;2022-10-31T12:46:34;9.82;;;4.57;;
6344;SDS011;3205;42.666;23.264;2022-10-31T12:49:23;10.80;;;4.60;;
6344;SDS011;3205;42.666;23.264;2022-10-31T12:52:03;11.35;;;4.25;;
6344;SDS011;3205;42.666;23.264;2022-10-31T12:54:43;13.57;;;4.38;;
6344;SDS011;3205;42.666;23.264;2022-10-31T12:57:22;7.40;;;4.35;;
6344;SDS011;3205;42.666;23.264;2022-10-31T12:59:56;15.35;;;4.65;;
6344;SDS011;3205;42.666;23.264;2022-10-31T13:02:29;15.35;;;4.15;;
6344;SDS011;3205;42.666;23.264;2022-10-31T13:05:01;18.25;;;4.60;;
6344;SDS011;3205;42.666;23.264;2022-10-31T13:07:34;13.95;;;4.15;;
6344;SDS011;3205;42.666;23.264;2022-10-31T13:10:07;13.93;;;4.63;;
6344;SDS011;3205;42.666;23.264;2022-10-31T13:12:41;16.15;;;4.38;;
6344;SDS011;3205;42.666;23.264;2022-10-31T13:15:12;14.95;;;4.68;;
6344;SDS011;3205;42.666;23.264;2022-10-31T13:17:43;11.48;;;3.95;;
6344;SDS011;3205;42.666;23.264;2022-10-31T13:20:17;11.23;;;4.47;;
6344;SDS011;3205;42.666;23.264;2022-10-31T13:22:50;23.02;;;4.65;;
6344;SDS011;3205;42.666;23.264;2022-10-31T13:25:21;9.15;;;4.13;;
6344;SDS011;3205;42.666;23.264;2022-10-31T13:27:51;18.30;;;4.32;;
6344;SDS011;3205;42.666;23.264;2022-10-31T13:30:22;10.68;;;4.20;;
6344;SDS011;3205;42.666;23.264;2022-10-31T13:32:51;16.85;;;4.75;;
6344;SDS011;3205;42.666;23.264;2022-10-31T13:35:25;11.85;;;3.85;;
6344;SDS011;3205;42.666;23.264;2022-10-31T13:38:11;14.98;;;4.85;;
6344;SDS011;3205;42.666;23.264;2022-10-31T13:40:47;12.77;;;4.18;;
6344;SDS011;3205;42.666;23.264;2022-10-31T13:43:25;10.77;;;4.35;;
6344;SDS011;3205;42.666;23.264;2022-10-31T13:45:59;12.05;;;4.03;;
6344;SDS011;3205;42.666;23.264;2022-10-31T13:48:37;14.13;;;4.40;;
6344;SDS011;3205;42.666;23.264;2022-10-31T13:51:08;10.63;;;4.13;;
6344;SDS011;3205;42.666;23.264;2022-10-31T13:53:44;10.30;;;3.88;;
6344;SDS011;3205;42.666;23.264;2022-10-31T13:56:23;16.95;;;5.25;;
6344;SDS011;3205;42.666;23.264;2022-10-31T13:59:04;21.25;;;4.57;;
6344;SDS011;3205;42.666;23.264;2022-10-31T14:01:51;10.05;;;4.07;;
6344;SDS011;3205;42.666;23.264;2022-10-31T14:04:22;19.25;;;4.07;;
6344;SDS011;3205;42.666;23.264;2022-10-31T14:06:53;15.70;;;4.15;;
6344;SDS011;3205;42.666;23.264;2022-10-31T14:09:26;13.18;;;3.90;;
6344;SDS011;3205;42.666;23.264;2022-10-31T14:11:57;9.25;;;3.58;;
6344;SDS011;3205;42.666;23.264;2022-10-31T14:14:33;12.38;;;4.00;;
6344;SDS011;3205;42.666;23.264;2022-10-31T14:17:20;15.73;;;3.97;;
6344;SDS011;3205;42.666;23.264;2022-10-31T14:19:59;13.70;;;4.50;;
6344;SDS011;3205;42.666;23.264;2022-10-31T14:22:31;14.75;;;5.00;;
6344;SDS011;3205;42.666;23.264;2022-10-31T14:25:00;18.38;;;4.53;;
6344;SDS011;3205;42.666;23.264;2022-10-31T14:27:34;8.32;;;3.65;;
6344;SDS011;3205;42.666;23.264;2022-10-31T14:30:14;20.30;;;3.97;;
6344;SDS011;3205;42.666;23.264;2022-10-31T14:32:43;14.98;;;3.55;;
6344;SDS011;3205;42.666;23.264;2022-10-31T14:35:13;12.95;;;4.47;;
6344;SDS011;3205;42.666;23.264;2022-10-31T14:37:49;18.85;;;5.63;;
6344;SDS011;3205;42.666;23.264;2022-10-31T14:40:35;18.13;;;5.80;;
6344;SDS011;3205;42.666;23.264;2022-10-31T14:46:30;23.35;;;7.47;;
6344;SDS011;3205;42.666;23.264;2022-10-31T14:49:16;46.45;;;10.38;;
6344;SDS011;3205;42.666;23.264;2022-10-31T14:51:53;35.55;;;8.80;;
6344;SDS011;3205;42.666;23.264;2022-10-31T14:54:25;55.28;;;8.13;;
6344;SDS011;3205;42.666;23.264;2022-10-31T14:56:58;56.90;;;8.98;;
6344;SDS011;3205;42.666;23.264;2022-10-31T14:59:31;48.03;;;9.10;;
6344;SDS011;3205;42.666;23.264;2022-10-31T15:02:01;64.63;;;10.05;;
6344;SDS011;3205;42.666;23.264;2022-10-31T15:04:36;58.75;;;9.43;;
6344;SDS011;3205;42.666;23.264;2022-10-31T15:07:05;39.00;;;7.82;;
6344;SDS011;3205;42.666;23.264;2022-10-31T15:09:36;27.60;;;8.52;;
6344;SDS011;3205;42.666;23.264;2022-10-31T15:14:51;44.28;;;9.60;;
6344;SDS011;3205;42.666;23.264;2022-10-31T15:17:18;55.60;;;11.02;;
6344;SDS011;3205;42.666;23.264;2022-10-31T15:19:46;51.05;;;11.57;;